sensor_id;sensor_type;location;lat;lon;timestamp;temperature;humidity
3281;DHT22;1652;51.318;6.202;2023-03-20T00:01:55;8.70;99.90
3281;DHT22;1652;51.318;6.202;2023-03-20T00:04:22;8.60;99.90
3281;DHT22;1652;51.318;6.202;2023-03-20T00:06:49;8.60;99.90
3281;DHT22;1652;51.318;6.202;2023-03-20T00:09:15;8.60;99.90
3281;DHT22;1652;51.318;6.202;2023-03-20T00:11:47;8.60;99.90
3281;DHT22;1652;51.318;6.202;2023-03-20T00:14:16;8.60;99.90
3281;DHT22;1652;51.318;6.202;2023-03-20T00:16:46;8.60;99.90
3281;DHT22;1652;51.318;6.202;2023-03-20T00:19:24;8.70;99.90
3281;DHT22;1652;51.318;6.202;2023-03-20T00:21:53;8.60;99.90
3281;DHT22;1652;51.318;6.202;2023-03-20T00:24:21;8.50;99.90
3281;DHT22;1652;51.318;6.202;2023-03-20T00:26:49;8.50;99.90
3281;DHT22;1652;51.318;6.202;2023-03-20T00:31:48;8.60;99.90
3281;DHT22;1652;51.318;6.202;2023-03-20T00:34:20;8.50;99.90
3281;DHT22;1652;51.318;6.202;2023-03-20T00:36:49;8.50;99.90
3281;DHT22;1652;51.318;6.202;2023-03-20T00:39:16;8.50;99.90
3281;DHT22;1652;51.318;6.202;2023-03-20T00:46:57;8.40;99.90
3281;DHT22;1652;51.318;6.202;2023-03-20T00:49:29;8.40;99.90
3281;DHT22;1652;51.318;6.202;2023-03-20T00:51:56;8.40;99.90
3281;DHT22;1652;51.318;6.202;2023-03-20T00:54:24;8.40;99.90
3281;DHT22;1652;51.318;6.202;2023-03-20T00:57:00;8.40;99.90
3281;DHT22;1652;51.318;6.202;2023-03-20T00:59:31;8.40;99.90
3281;DHT22;1652;51.318;6.202;2023-03-20T01:01:59;8.40;99.90
3281;DHT22;1652;51.318;6.202;2023-03-20T01:04:34;8.50;99.90
3281;DHT22;1652;51.318;6.202;2023-03-20T01:07:02;8.50;99.90
3281;DHT22;1652;51.318;6.202;2023-03-20T01:09:29;8.50;99.90
3281;DHT22;1652;51.318;6.202;2023-03-20T01:11:58;8.40;99.90
3281;DHT22;1652;51.318;6.202;2023-03-20T01:14:25;8.40;99.90
3281;DHT22;1652;51.318;6.202;2023-03-20T01:16:52;8.40;99.90
3281;DHT22;1652;51.318;6.202;2023-03-20T01:19:19;8.40;99.90
3281;DHT22;1652;51.318;6.202;2023-03-20T01:21:45;8.50;99.90
3281;DHT22;1652;51.318;6.202;2023-03-20T01:24:12;8.40;99.90
3281;DHT22;1652;51.318;6.202;2023-03-20T01:26:41;8.40;99.90
3281;DHT22;1652;51.318;6.202;2023-03-20T01:29:25;8.50;99.90
3281;DHT22;1652;51.318;6.202;2023-03-20T01:31:53;8.50;99.90
3281;DHT22;1652;51.318;6.202;2023-03-20T01:34:20;8.50;99.90
3281;DHT22;1652;51.318;6.202;2023-03-20T01:39:16;8.40;99.90
3281;DHT22;1652;51.318;6.202;2023-03-20T01:41:45;8.50;99.90
3281;DHT22;1652;51.318;6.202;2023-03-20T01:44:23;8.50;99.90
3281;DHT22;1652;51.318;6.202;2023-03-20T01:46:51;8.50;99.90
3281;DHT22;1652;51.318;6.202;2023-03-20T01:51:47;8.50;99.90
3281;DHT22;1652;51.318;6.202;2023-03-20T01:54:23;8.50;99.90
3281;DHT22;1652;51.318;6.202;2023-03-20T01:56:51;8.50;99.90
3281;DHT22;1652;51.318;6.202;2023-03-20T01:59:27;8.50;99.90
3281;DHT22;1652;51.318;6.202;2023-03-20T02:01:55;8.50;99.90
3281;DHT22;1652;51.318;6.202;2023-03-20T02:04:28;8.40;99.90
3281;DHT22;1652;51.318;6.202;2023-03-20T02:06:56;8.40;99.90
3281;DHT22;1652;51.318;6.202;2023-03-20T02:09:23;8.50;99.90
3281;DHT22;1652;51.318;6.202;2023-03-20T02:11:51;8.60;99.90
3281;DHT22;1652;51.318;6.202;2023-03-20T02:14:19;8.50;99.90
3281;DHT22;1652;51.318;6.202;2023-03-20T02:16:46;8.40;99.90
3281;DHT22;1652;51.318;6.202;2023-03-20T02:19:28;8.50;99.90
3281;DHT22;1652;51.318;6.202;2023-03-20T02:45:30;8.20;99.90
3281;DHT22;1652;51.318;6.202;2023-03-20T02:50:47;8.00;99.90
3281;DHT22;1652;51.318;6.202;2023-03-20T02:56:17;7.90;99.90
3281;DHT22;1652;51.318;6.202;2023-03-20T03:01:43;7.60;99.90
3281;DHT22;1652;51.318;6.202;2023-03-20T03:04:16;7.50;99.90
3281;DHT22;1652;51.318;6.202;2023-03-20T03:06:46;7.40;99.90
3281;DHT22;1652;51.318;6.202;2023-03-20T03:09:28;7.40;99.90
3281;DHT22;1652;51.318;6.202;2023-03-20T03:12:08;7.30;99.90
3281;DHT22;1652;51.318;6.202;2023-03-20T03:14:45;7.40;99.90
3281;DHT22;1652;51.318;6.202;2023-03-20T03:17:15;7.30;99.90
3281;DHT22;1652;51.318;6.202;2023-03-20T03:19:48;7.40;99.90
3281;DHT22;1652;51.318;6.202;2023-03-20T03:22:16;7.50;99.90
3281;DHT22;1652;51.318;6.202;2023-03-20T03:24:45;7.50;99.90
3281;DHT22;1652;51.318;6.202;2023-03-20T03:27:23;7.50;99.90
3281;DHT22;1652;51.318;6.202;2023-03-20T03:29:57;7.50;99.90
3281;DHT22;1652;51.318;6.202;2023-03-20T03:32:35;7.60;99.90
3281;DHT22;1652;51.318;6.202;2023-03-20T03:35:05;7.50;99.90
3281;DHT22;1652;51.318;6.202;2023-03-20T03:40:19;7.50;99.90
3281;DHT22;1652;51.318;6.202;2023-03-20T03:42:55;7.50;99.90
3281;DHT22;1652;51.318;6.202;2023-03-20T03:45:32;7.50;99.90
3281;DHT22;1652;51.318;6.202;2023-03-20T03:48:20;7.40;99.90
3281;DHT22;1652;51.318;6.202;2023-03-20T03:50:54;7.30;99.90
3281;DHT22;1652;51.318;6.202;2023-03-20T03:53:26;7.30;99.90
3281;DHT22;1652;51.318;6.202;2023-03-20T03:56:03;7.30;99.90
3281;DHT22;1652;51.318;6.202;2023-03-20T03:58:38;7.20;99.90
3281;DHT22;1652;51.318;6.202;2023-03-20T04:01:09;7.20;99.90
3281;DHT22;1652;51.318;6.202;2023-03-20T04:03:41;7.20;99.90
3281;DHT22;1652;51.318;6.202;2023-03-20T04:06:10;7.20;99.90
3281;DHT22;1652;51.318;6.202;2023-03-20T04:08:42;7.20;99.90
3281;DHT22;1652;51.318;6.202;2023-03-20T04:11:15;7.10;99.90
3281;DHT22;1652;51.318;6.202;2023-03-20T04:13:42;7.20;99.90
3281;DHT22;1652;51.318;6.202;2023-03-20T04:16:16;7.10;99.90
3281;DHT22;1652;51.318;6.202;2023-03-20T04:18:44;7.10;99.90
3281;DHT22;1652;51.318;6.202;2023-03-20T04:21:11;7.20;99.90
3281;DHT22;1652;51.318;6.202;2023-03-20T04:23:38;7.10;99.90
3281;DHT22;1652;51.318;6.202;2023-03-20T04:26:05;7.10;99.90
3281;DHT22;1652;51.318;6.202;2023-03-20T04:28:32;7.10;99.90
3281;DHT22;1652;51.318;6.202;2023-03-20T04:31:01;7.10;99.90
3281;DHT22;1652;51.318;6.202;2023-03-20T04:33:28;7.10;99.90
3281;DHT22;1652;51.318;6.202;2023-03-20T04:35:55;6.90;99.90
3281;DHT22;1652;51.318;6.202;2023-03-20T04:38:23;7.00;99.90
3281;DHT22;1652;51.318;6.202;2023-03-20T04:40:50;6.90;99.90
3281;DHT22;1652;51.318;6.202;2023-03-20T04:43:17;6.80;99.90
3281;DHT22;1652;51.318;6.202;2023-03-20T04:45:44;6.80;99.90
3281;DHT22;1652;51.318;6.202;2023-03-20T04:48:11;6.80;99.90
3281;DHT22;1652;51.318;6.202;2023-03-20T04:50:38;6.80;99.90
3281;DHT22;1652;51.318;6.202;2023-03-20T04:53:05;6.80;99.90
3281;DHT22;1652;51.318;6.202;2023-03-20T04:55:32;6.80;99.90
3281;DHT22;1652;51.318;6.202;2023-03-20T04:57:59;6.80;99.90
3281;DHT22;1652;51.318;6.202;2023-03-20T05:00:26;6.90;99.90
3281;DHT22;1652;51.318;6.202;2023-03-20T05:02:53;6.80;99.90
3281;DHT22;1652;51.318;6.202;2023-03-20T05:05:20;6.90;99.90
3281;DHT22;1652;51.318;6.202;2023-03-20T05:07:47;6.90;99.90
3281;DHT22;1652;51.318;6.202;2023-03-20T05:10:14;6.90;99.90
3281;DHT22;1652;51.318;6.202;2023-03-20T05:12:41;6.90;99.90
3281;DHT22;1652;51.318;6.202;2023-03-20T05:15:08;6.90;99.90
3281;DHT22;1652;51.318;6.202;2023-03-20T05:17:35;6.90;99.90
3281;DHT22;1652;51.318;6.202;2023-03-20T05:20:02;6.90;99.90
3281;DHT22;1652;51.318;6.202;2023-03-20T05:22:28;6.90;99.90
3281;DHT22;1652;51.318;6.202;2023-03-20T05:24:55;6.90;99.90
3281;DHT22;1652;51.318;6.202;2023-03-20T05:27:22;6.80;99.90
3281;DHT22;1652;51.318;6.202;2023-03-20T05:29:49;6.80;99.90
3281;DHT22;1652;51.318;6.202;2023-03-20T05:32:16;6.80;99.90
3281;DHT22;1652;51.318;6.202;2023-03-20T05:34:43;6.80;99.90
3281;DHT22;1652;51.318;6.202;2023-03-20T05:37:11;6.80;99.90
3281;DHT22;1652;51.318;6.202;2023-03-20T05:39:38;6.80;99.90
3281;DHT22;1652;51.318;6.202;2023-03-20T05:42:04;6.70;99.90
3281;DHT22;1652;51.318;6.202;2023-03-20T05:44:31;6.70;99.90
3281;DHT22;1652;51.318;6.202;2023-03-20T05:46:58;6.70;99.90
3281;DHT22;1652;51.318;6.202;2023-03-20T05:49:25;6.80;99.90
3281;DHT22;1652;51.318;6.202;2023-03-20T05:51:51;6.80;99.90
3281;DHT22;1652;51.318;6.202;2023-03-20T05:54:18;6.80;99.90
3281;DHT22;1652;51.318;6.202;2023-03-20T05:56:45;6.80;99.90
3281;DHT22;1652;51.318;6.202;2023-03-20T05:59:12;6.80;99.90
3281;DHT22;1652;51.318;6.202;2023-03-20T06:01:39;6.80;99.90
3281;DHT22;1652;51.318;6.202;2023-03-20T06:04:06;6.80;99.90
3281;DHT22;1652;51.318;6.202;2023-03-20T06:06:34;6.90;99.90
3281;DHT22;1652;51.318;6.202;2023-03-20T06:09:04;6.90;99.90
3281;DHT22;1652;51.318;6.202;2023-03-20T06:11:31;6.90;99.90
3281;DHT22;1652;51.318;6.202;2023-03-20T06:13:59;7.00;99.90
3281;DHT22;1652;51.318;6.202;2023-03-20T06:16:27;7.00;99.90
3281;DHT22;1652;51.318;6.202;2023-03-20T06:18:53;7.00;99.90
3281;DHT22;1652;51.318;6.202;2023-03-20T06:21:20;7.00;99.90
3281;DHT22;1652;51.318;6.202;2023-03-20T06:23:47;7.00;99.90
3281;DHT22;1652;51.318;6.202;2023-03-20T06:26:14;6.90;99.90
3281;DHT22;1652;51.318;6.202;2023-03-20T06:28:41;7.00;99.90
3281;DHT22;1652;51.318;6.202;2023-03-20T06:31:08;7.10;99.90
3281;DHT22;1652;51.318;6.202;2023-03-20T06:33:35;7.10;99.90
3281;DHT22;1652;51.318;6.202;2023-03-20T06:36:03;7.10;99.90
3281;DHT22;1652;51.318;6.202;2023-03-20T06:38:30;7.20;99.90
3281;DHT22;1652;51.318;6.202;2023-03-20T06:40:57;7.20;99.90
3281;DHT22;1652;51.318;6.202;2023-03-20T06:43:24;7.30;99.90
3281;DHT22;1652;51.318;6.202;2023-03-20T06:45:51;7.30;99.90
3281;DHT22;1652;51.318;6.202;2023-03-20T06:48:18;7.40;99.90
3281;DHT22;1652;51.318;6.202;2023-03-20T06:50:48;7.50;99.90
3281;DHT22;1652;51.318;6.202;2023-03-20T06:53:15;7.50;99.90
3281;DHT22;1652;51.318;6.202;2023-03-20T06:55:46;7.50;99.90
3281;DHT22;1652;51.318;6.202;2023-03-20T06:58:14;7.50;99.90
3281;DHT22;1652;51.318;6.202;2023-03-20T07:00:41;7.60;99.90
3281;DHT22;1652;51.318;6.202;2023-03-20T07:03:08;7.60;99.90
3281;DHT22;1652;51.318;6.202;2023-03-20T07:05:35;7.70;99.90
3281;DHT22;1652;51.318;6.202;2023-03-20T07:08:04;7.70;99.90
3281;DHT22;1652;51.318;6.202;2023-03-20T07:10:33;7.80;99.90
3281;DHT22;1652;51.318;6.202;2023-03-20T07:13:00;7.80;99.90
3281;DHT22;1652;51.318;6.202;2023-03-20T07:15:27;8.00;99.90
3281;DHT22;1652;51.318;6.202;2023-03-20T07:17:55;8.10;99.90
3281;DHT22;1652;51.318;6.202;2023-03-20T07:20:23;8.20;99.90
3281;DHT22;1652;51.318;6.202;2023-03-20T07:25:21;8.40;99.90
3281;DHT22;1652;51.318;6.202;2023-03-20T07:28:08;8.60;99.90
3281;DHT22;1652;51.318;6.202;2023-03-20T07:30:34;8.80;99.90
3281;DHT22;1652;51.318;6.202;2023-03-20T07:33:01;8.90;99.90
3281;DHT22;1652;51.318;6.202;2023-03-20T07:35:28;9.10;99.90
3281;DHT22;1652;51.318;6.202;2023-03-20T07:37:55;9.10;99.90
3281;DHT22;1652;51.318;6.202;2023-03-20T07:40:24;9.10;99.90
3281;DHT22;1652;51.318;6.202;2023-03-20T07:42:51;9.10;99.90
3281;DHT22;1652;51.318;6.202;2023-03-20T07:45:18;9.20;99.90
3281;DHT22;1652;51.318;6.202;2023-03-20T07:47:45;9.40;99.90
3281;DHT22;1652;51.318;6.202;2023-03-20T07:50:14;9.50;99.90
3281;DHT22;1652;51.318;6.202;2023-03-20T07:52:45;9.80;99.90
3281;DHT22;1652;51.318;6.202;2023-03-20T07:55:13;9.90;99.90
3281;DHT22;1652;51.318;6.202;2023-03-20T07:57:44;10.00;99.90
3281;DHT22;1652;51.318;6.202;2023-03-20T08:00:11;10.20;99.90
3281;DHT22;1652;51.318;6.202;2023-03-20T08:02:38;10.20;99.90
3281;DHT22;1652;51.318;6.202;2023-03-20T08:05:05;10.20;99.90
3281;DHT22;1652;51.318;6.202;2023-03-20T08:07:33;10.10;99.90
3281;DHT22;1652;51.318;6.202;2023-03-20T08:10:00;10.00;99.90
3281;DHT22;1652;51.318;6.202;2023-03-20T08:12:27;9.90;99.90
3281;DHT22;1652;51.318;6.202;2023-03-20T08:14:54;9.80;99.90
3281;DHT22;1652;51.318;6.202;2023-03-20T08:17:20;9.60;99.90
3281;DHT22;1652;51.318;6.202;2023-03-20T08:19:47;9.50;99.90
3281;DHT22;1652;51.318;6.202;2023-03-20T08:22:14;9.40;99.90
3281;DHT22;1652;51.318;6.202;2023-03-20T08:24:41;9.40;99.90
3281;DHT22;1652;51.318;6.202;2023-03-20T08:27:08;9.30;99.90
3281;DHT22;1652;51.318;6.202;2023-03-20T08:29:35;9.40;99.90
3281;DHT22;1652;51.318;6.202;2023-03-20T08:32:02;9.50;99.90
3281;DHT22;1652;51.318;6.202;2023-03-20T08:34:30;9.60;99.90
3281;DHT22;1652;51.318;6.202;2023-03-20T08:36:59;9.70;99.90
3281;DHT22;1652;51.318;6.202;2023-03-20T08:39:28;9.90;99.90
3281;DHT22;1652;51.318;6.202;2023-03-20T08:41:54;10.00;99.90
3281;DHT22;1652;51.318;6.202;2023-03-20T08:44:21;10.20;99.90
3281;DHT22;1652;51.318;6.202;2023-03-20T08:46:48;10.10;47.70
3281;DHT22;1652;51.318;6.202;2023-03-20T08:49:15;10.20;31.00
3281;DHT22;1652;51.318;6.202;2023-03-20T08:51:42;10.30;38.70
3281;DHT22;1652;51.318;6.202;2023-03-20T08:54:10;10.30;25.10
3281;DHT22;1652;51.318;6.202;2023-03-20T08:56:37;10.30;24.50
3281;DHT22;1652;51.318;6.202;2023-03-20T08:59:03;10.30;5.60
3281;DHT22;1652;51.318;6.202;2023-03-20T09:01:30;10.10;19.70
3281;DHT22;1652;51.318;6.202;2023-03-20T09:04:15;10.00;29.30
3281;DHT22;1652;51.318;6.202;2023-03-20T09:06:42;9.90;32.00
3281;DHT22;1652;51.318;6.202;2023-03-20T09:09:08;9.90;28.80
3281;DHT22;1652;51.318;6.202;2023-03-20T09:11:35;9.80;39.20
3281;DHT22;1652;51.318;6.202;2023-03-20T09:14:02;9.90;40.00
3281;DHT22;1652;51.318;6.202;2023-03-20T09:16:29;10.00;31.30
3281;DHT22;1652;51.318;6.202;2023-03-20T09:18:56;10.10;19.70
3281;DHT22;1652;51.318;6.202;2023-03-20T09:21:23;10.20;8.50
3281;DHT22;1652;51.318;6.202;2023-03-20T09:23:50;10.30;12.80
3281;DHT22;1652;51.318;6.202;2023-03-20T09:26:17;10.30;3.90
3281;DHT22;1652;51.318;6.202;2023-03-20T09:28:43;10.30;4.40
3281;DHT22;1652;51.318;6.202;2023-03-20T09:31:10;10.20;3.70
3281;DHT22;1652;51.318;6.202;2023-03-20T09:33:37;10.00;4.40
3281;DHT22;1652;51.318;6.202;2023-03-20T09:36:04;10.00;21.00
3281;DHT22;1652;51.318;6.202;2023-03-20T09:38:33;10.10;6.60
3281;DHT22;1652;51.318;6.202;2023-03-20T09:41:01;10.10;1.00
3281;DHT22;1652;51.318;6.202;2023-03-20T09:43:43;10.10;1.00
3281;DHT22;1652;51.318;6.202;2023-03-20T09:51:37;10.20;1.00
3281;DHT22;1652;51.318;6.202;2023-03-20T09:54:17;10.10;1.00
3281;DHT22;1652;51.318;6.202;2023-03-20T09:56:48;10.00;1.00
3281;DHT22;1652;51.318;6.202;2023-03-20T09:59:17;10.10;1.00
3281;DHT22;1652;51.318;6.202;2023-03-20T10:01:55;10.10;1.00
3281;DHT22;1652;51.318;6.202;2023-03-20T10:04:28;10.10;1.00
3281;DHT22;1652;51.318;6.202;2023-03-20T10:06:55;10.10;1.00
3281;DHT22;1652;51.318;6.202;2023-03-20T10:09:27;10.20;1.00
3281;DHT22;1652;51.318;6.202;2023-03-20T10:17:24;10.40;1.00
3281;DHT22;1652;51.318;6.202;2023-03-20T10:20:12;10.40;1.00
3281;DHT22;1652;51.318;6.202;2023-03-20T10:25:31;9.90;1.00
3281;DHT22;1652;51.318;6.202;2023-03-20T10:28:28;9.70;1.00
3281;DHT22;1652;51.318;6.202;2023-03-20T10:36:57;10.00;1.00
3281;DHT22;1652;51.318;6.202;2023-03-20T10:42:03;10.20;1.00
3281;DHT22;1652;51.318;6.202;2023-03-20T10:44:39;10.30;1.00
3281;DHT22;1652;51.318;6.202;2023-03-20T10:47:10;10.40;1.00
3281;DHT22;1652;51.318;6.202;2023-03-20T10:49:57;10.50;1.00
3281;DHT22;1652;51.318;6.202;2023-03-20T10:52:30;10.50;1.00
3281;DHT22;1652;51.318;6.202;2023-03-20T10:55:06;10.40;3.20
3281;DHT22;1652;51.318;6.202;2023-03-20T10:57:37;10.40;21.80
3281;DHT22;1652;51.318;6.202;2023-03-20T11:00:15;10.20;1.00
3281;DHT22;1652;51.318;6.202;2023-03-20T11:02:45;10.00;11.90
3281;DHT22;1652;51.318;6.202;2023-03-20T11:05:27;9.90;43.50
3281;DHT22;1652;51.318;6.202;2023-03-20T11:08:13;10.20;60.80
3281;DHT22;1652;51.318;6.202;2023-03-20T11:10:41;10.50;37.00
3281;DHT22;1652;51.318;6.202;2023-03-20T11:13:31;10.60;33.00
3281;DHT22;1652;51.318;6.202;2023-03-20T11:16:18;10.60;20.50
3281;DHT22;1652;51.318;6.202;2023-03-20T11:18:46;10.60;38.50
3281;DHT22;1652;51.318;6.202;2023-03-20T11:21:23;10.80;43.10
3281;DHT22;1652;51.318;6.202;2023-03-20T11:23:52;10.80;32.70
3281;DHT22;1652;51.318;6.202;2023-03-20T11:26:31;10.80;44.00
3281;DHT22;1652;51.318;6.202;2023-03-20T11:28:59;10.80;53.60
3281;DHT22;1652;51.318;6.202;2023-03-20T11:31:36;11.00;61.40
3281;DHT22;1652;51.318;6.202;2023-03-20T11:34:08;11.00;58.40
3281;DHT22;1652;51.318;6.202;2023-03-20T11:36:37;11.00;49.40
3281;DHT22;1652;51.318;6.202;2023-03-20T11:39:22;10.80;13.80
3281;DHT22;1652;51.318;6.202;2023-03-20T11:41:51;10.60;22.10
3281;DHT22;1652;51.318;6.202;2023-03-20T11:44:27;10.50;45.00
3281;DHT22;1652;51.318;6.202;2023-03-20T11:47:11;10.60;71.90
3281;DHT22;1652;51.318;6.202;2023-03-20T11:49:56;10.70;63.90
3281;DHT22;1652;51.318;6.202;2023-03-20T11:52:34;10.70;71.90
3281;DHT22;1652;51.318;6.202;2023-03-20T11:55:07;10.70;79.90
3281;DHT22;1652;51.318;6.202;2023-03-20T11:57:46;10.60;59.10
3281;DHT22;1652;51.318;6.202;2023-03-20T12:00:20;10.40;61.70
3281;DHT22;1652;51.318;6.202;2023-03-20T12:02:48;10.40;58.00
3281;DHT22;1652;51.318;6.202;2023-03-20T12:05:33;10.70;64.40
3281;DHT22;1652;51.318;6.202;2023-03-20T12:08:11;10.80;43.00
3281;DHT22;1652;51.318;6.202;2023-03-20T12:10:41;11.00;58.20
3281;DHT22;1652;51.318;6.202;2023-03-20T12:13:22;11.20;41.50
3281;DHT22;1652;51.318;6.202;2023-03-20T12:15:56;11.20;24.50
3281;DHT22;1652;51.318;6.202;2023-03-20T12:18:45;11.30;31.80
3281;DHT22;1652;51.318;6.202;2023-03-20T12:24:23;11.30;8.30
3281;DHT22;1652;51.318;6.202;2023-03-20T12:27:05;11.40;1.00
3281;DHT22;1652;51.318;6.202;2023-03-20T12:29:42;11.40;1.00
3281;DHT22;1652;51.318;6.202;2023-03-20T12:32:34;11.50;1.00
3281;DHT22;1652;51.318;6.202;2023-03-20T12:35:10;11.60;1.00
3281;DHT22;1652;51.318;6.202;2023-03-20T12:37:42;11.70;1.00
3281;DHT22;1652;51.318;6.202;2023-03-20T12:40:16;11.80;1.00
3281;DHT22;1652;51.318;6.202;2023-03-20T12:43:12;12.00;1.00
3281;DHT22;1652;51.318;6.202;2023-03-20T12:45:50;12.00;1.00
3281;DHT22;1652;51.318;6.202;2023-03-20T12:48:33;12.10;1.00
3281;DHT22;1652;51.318;6.202;2023-03-20T12:53:58;12.00;1.00
3281;DHT22;1652;51.318;6.202;2023-03-20T13:05:47;11.80;1.00
3281;DHT22;1652;51.318;6.202;2023-03-20T13:08:28;11.80;1.00
3281;DHT22;1652;51.318;6.202;2023-03-20T13:11:20;11.80;1.00
3281;DHT22;1652;51.318;6.202;2023-03-20T13:14:13;11.90;1.00
3281;DHT22;1652;51.318;6.202;2023-03-20T13:16:50;12.10;1.00
3281;DHT22;1652;51.318;6.202;2023-03-20T13:19:41;11.90;1.00
3281;DHT22;1652;51.318;6.202;2023-03-20T13:25:17;12.00;1.00
3281;DHT22;1652;51.318;6.202;2023-03-20T13:27:59;12.20;1.00
3281;DHT22;1652;51.318;6.202;2023-03-20T13:30:36;12.20;1.00
3281;DHT22;1652;51.318;6.202;2023-03-20T13:33:25;12.10;1.00
3281;DHT22;1652;51.318;6.202;2023-03-20T13:39:04;11.70;1.00
3281;DHT22;1652;51.318;6.202;2023-03-20T13:41:33;11.70;1.00
3281;DHT22;1652;51.318;6.202;2023-03-20T13:44:03;11.60;1.00
3281;DHT22;1652;51.318;6.202;2023-03-20T13:46:42;11.50;1.00
3281;DHT22;1652;51.318;6.202;2023-03-20T13:49:34;11.60;1.00
3281;DHT22;1652;51.318;6.202;2023-03-20T13:52:14;11.70;1.00
3281;DHT22;1652;51.318;6.202;2023-03-20T14:05:46;11.10;1.00
3281;DHT22;1652;51.318;6.202;2023-03-20T14:08:29;11.20;1.00
3281;DHT22;1652;51.318;6.202;2023-03-20T14:13:41;11.50;1.00
3281;DHT22;1652;51.318;6.202;2023-03-20T14:16:13;11.60;1.00
3281;DHT22;1652;51.318;6.202;2023-03-20T14:18:42;11.60;1.00
3281;DHT22;1652;51.318;6.202;2023-03-20T14:21:17;11.60;1.00
3281;DHT22;1652;51.318;6.202;2023-03-20T14:23:47;11.70;1.00
3281;DHT22;1652;51.318;6.202;2023-03-20T14:26:26;11.80;1.00
3281;DHT22;1652;51.318;6.202;2023-03-20T14:31:30;11.90;1.00
3281;DHT22;1652;51.318;6.202;2023-03-20T14:36:59;12.10;1.00
3281;DHT22;1652;51.318;6.202;2023-03-20T14:42:23;11.90;1.00
3281;DHT22;1652;51.318;6.202;2023-03-20T14:47:57;12.10;1.00
3281;DHT22;1652;51.318;6.202;2023-03-20T14:50:38;11.90;1.00
3281;DHT22;1652;51.318;6.202;2023-03-20T14:53:19;11.90;7.50
3281;DHT22;1652;51.318;6.202;2023-03-20T14:58:34;11.90;1.00
3281;DHT22;1652;51.318;6.202;2023-03-20T15:01:06;11.90;1.00
3281;DHT22;1652;51.318;6.202;2023-03-20T15:03:33;11.80;1.00
3281;DHT22;1652;51.318;6.202;2023-03-20T15:06:05;11.80;1.00
3281;DHT22;1652;51.318;6.202;2023-03-20T15:08:34;11.80;1.00
3281;DHT22;1652;51.318;6.202;2023-03-20T15:11:06;11.80;1.00
3281;DHT22;1652;51.318;6.202;2023-03-20T15:13:35;11.60;1.00
3281;DHT22;1652;51.318;6.202;2023-03-20T15:16:08;11.50;1.00
3281;DHT22;1652;51.318;6.202;2023-03-20T15:21:32;11.40;1.00
3281;DHT22;1652;51.318;6.202;2023-03-20T15:24:00;11.30;1.00
3281;DHT22;1652;51.318;6.202;2023-03-20T15:26:28;11.20;4.60
3281;DHT22;1652;51.318;6.202;2023-03-20T15:29:03;11.20;40.20
3281;DHT22;1652;51.318;6.202;2023-03-20T15:31:36;11.10;52.00
3281;DHT22;1652;51.318;6.202;2023-03-20T15:34:08;11.00;83.00
3281;DHT22;1652;51.318;6.202;2023-03-20T15:36:38;11.00;89.30
3281;DHT22;1652;51.318;6.202;2023-03-20T15:39:15;11.00;84.50
3281;DHT22;1652;51.318;6.202;2023-03-20T15:41:50;10.90;92.40
3281;DHT22;1652;51.318;6.202;2023-03-20T15:44:53;10.90;92.50
3281;DHT22;1652;51.318;6.202;2023-03-20T15:47:16;11.00;95.90
3281;DHT22;1652;51.318;6.202;2023-03-20T15:49:52;11.00;90.00
3281;DHT22;1652;51.318;6.202;2023-03-20T15:54:55;11.10;94.90
3281;DHT22;1652;51.318;6.202;2023-03-20T15:57:32;11.10;99.00
3281;DHT22;1652;51.318;6.202;2023-03-20T16:00:13;11.20;98.90
3281;DHT22;1652;51.318;6.202;2023-03-20T16:02:45;11.10;68.30
3281;DHT22;1652;51.318;6.202;2023-03-20T16:05:15;11.10;78.90
3281;DHT22;1652;51.318;6.202;2023-03-20T16:07:43;11.10;58.50
3281;DHT22;1652;51.318;6.202;2023-03-20T16:12:50;11.00;66.70
3281;DHT22;1652;51.318;6.202;2023-03-20T16:15:24;11.00;77.00
3281;DHT22;1652;51.318;6.202;2023-03-20T16:17:56;10.90;70.00
3281;DHT22;1652;51.318;6.202;2023-03-20T16:20:25;10.80;61.80
3281;DHT22;1652;51.318;6.202;2023-03-20T16:22:58;10.80;88.40
3281;DHT22;1652;51.318;6.202;2023-03-20T16:25:25;10.90;78.10
3281;DHT22;1652;51.318;6.202;2023-03-20T16:27:52;10.90;66.10
3281;DHT22;1652;51.318;6.202;2023-03-20T16:30:26;10.90;79.90
3281;DHT22;1652;51.318;6.202;2023-03-20T16:33:10;10.80;66.90
3281;DHT22;1652;51.318;6.202;2023-03-20T16:35:43;10.80;52.20
3281;DHT22;1652;51.318;6.202;2023-03-20T16:38:22;10.80;56.70
3281;DHT22;1652;51.318;6.202;2023-03-20T16:40:53;10.90;66.00
3281;DHT22;1652;51.318;6.202;2023-03-20T16:43:26;10.90;58.50
3281;DHT22;1652;51.318;6.202;2023-03-20T16:45:57;10.80;40.70
3281;DHT22;1652;51.318;6.202;2023-03-20T16:48:33;10.80;49.60
3281;DHT22;1652;51.318;6.202;2023-03-20T16:53:45;10.80;60.50
3281;DHT22;1652;51.318;6.202;2023-03-20T16:56:36;10.70;58.70
3281;DHT22;1652;51.318;6.202;2023-03-20T16:59:10;10.70;48.20
3281;DHT22;1652;51.318;6.202;2023-03-20T17:01:43;10.60;50.50
3281;DHT22;1652;51.318;6.202;2023-03-20T17:06:52;10.50;48.60
3281;DHT22;1652;51.318;6.202;2023-03-20T17:09:30;10.50;44.80
3281;DHT22;1652;51.318;6.202;2023-03-20T17:12:14;10.50;57.30
3281;DHT22;1652;51.318;6.202;2023-03-20T17:14:43;10.50;60.50
3281;DHT22;1652;51.318;6.202;2023-03-20T17:17:15;10.50;53.00
3281;DHT22;1652;51.318;6.202;2023-03-20T17:19:45;10.50;46.20
3281;DHT22;1652;51.318;6.202;2023-03-20T17:22:15;10.50;42.60
3281;DHT22;1652;51.318;6.202;2023-03-20T17:24:43;10.50;60.40
3281;DHT22;1652;51.318;6.202;2023-03-20T17:27:10;10.50;52.00
3281;DHT22;1652;51.318;6.202;2023-03-20T17:29:38;10.60;50.10
3281;DHT22;1652;51.318;6.202;2023-03-20T17:32:19;10.60;68.50
3281;DHT22;1652;51.318;6.202;2023-03-20T17:34:49;10.60;62.60
3281;DHT22;1652;51.318;6.202;2023-03-20T17:37:22;10.60;68.70
3281;DHT22;1652;51.318;6.202;2023-03-20T17:39:50;10.50;74.00
3281;DHT22;1652;51.318;6.202;2023-03-20T17:42:18;10.50;79.70
3281;DHT22;1652;51.318;6.202;2023-03-20T17:44:46;10.50;91.90
3281;DHT22;1652;51.318;6.202;2023-03-20T17:47:15;10.40;96.30
3281;DHT22;1652;51.318;6.202;2023-03-20T17:49:42;10.40;99.10
3281;DHT22;1652;51.318;6.202;2023-03-20T17:52:17;10.40;97.20
3281;DHT22;1652;51.318;6.202;2023-03-20T17:54:45;10.40;97.30
3281;DHT22;1652;51.318;6.202;2023-03-20T17:57:32;10.40;96.70
3281;DHT22;1652;51.318;6.202;2023-03-20T18:00:00;10.40;99.90
3281;DHT22;1652;51.318;6.202;2023-03-20T18:02:27;10.30;99.90
3281;DHT22;1652;51.318;6.202;2023-03-20T18:04:53;10.30;99.90
3281;DHT22;1652;51.318;6.202;2023-03-20T18:07:20;10.30;99.90
3281;DHT22;1652;51.318;6.202;2023-03-20T18:09:47;10.30;99.90
3281;DHT22;1652;51.318;6.202;2023-03-20T18:12:16;10.20;99.90
3281;DHT22;1652;51.318;6.202;2023-03-20T18:14:44;10.20;99.90
3281;DHT22;1652;51.318;6.202;2023-03-20T18:17:13;10.20;99.90
3281;DHT22;1652;51.318;6.202;2023-03-20T18:19:40;10.20;99.90
3281;DHT22;1652;51.318;6.202;2023-03-20T18:22:08;10.30;99.90
3281;DHT22;1652;51.318;6.202;2023-03-20T18:24:35;10.30;99.90
3281;DHT22;1652;51.318;6.202;2023-03-20T18:27:05;10.30;99.90
3281;DHT22;1652;51.318;6.202;2023-03-20T18:29:32;10.30;99.90
3281;DHT22;1652;51.318;6.202;2023-03-20T18:31:59;10.20;99.90
3281;DHT22;1652;51.318;6.202;2023-03-20T18:34:26;10.20;99.90
3281;DHT22;1652;51.318;6.202;2023-03-20T18:36:52;10.20;99.90
3281;DHT22;1652;51.318;6.202;2023-03-20T18:39:21;10.10;99.90
3281;DHT22;1652;51.318;6.202;2023-03-20T18:41:49;10.20;99.90
3281;DHT22;1652;51.318;6.202;2023-03-20T18:44:16;10.20;99.90
3281;DHT22;1652;51.318;6.202;2023-03-20T18:46:43;10.20;99.90
3281;DHT22;1652;51.318;6.202;2023-03-20T18:49:14;10.20;99.90
3281;DHT22;1652;51.318;6.202;2023-03-20T18:51:42;10.20;99.90
3281;DHT22;1652;51.318;6.202;2023-03-20T18:54:09;10.30;99.90